Time;durP1;ratioP1;P1;durP2;ratioP2;P2;SDS_P1;SDS_P2;PMS_P1;PMS_P2;Temp;Humidity;BMP_temperature;BMP_pressure;BME280_temperature;BME280_humidity;BME280_pressure;Samples;Min_cycle;Max_cycle;Signal;HPM_P1;HPM_P2
2022/05/28 00:01:49;;;;;;;2.22;0.88;;;;;;;;;;7389983;19;20528;-80
2022/05/28 00:04:15;;;;;;;1.42;0.65;;;;;;;;;;7393988;19;20038;-80
2022/05/28 00:06:41;;;;;;;3.08;0.77;;;;;;;;;;7390490;19;20734;-80
2022/05/28 00:09:06;;;;;;;0.80;0.77;;;;;;;;;;7394247;19;20480;-80
2022/05/28 00:11:35;;;;;;;1.17;0.68;;;;;;;;;;7391805;19;20010;-80
2022/05/28 00:14:01;;;;;;;0.82;0.73;;;;;;;;;;7394537;19;20015;-79
2022/05/28 00:16:27;;;;;;;0.82;0.70;;;;;;;;;;7389977;19;20006;-80
2022/05/28 00:18:52;;;;;;;0.80;0.80;;;;;;;;;;7393921;19;20014;-79
2022/05/28 00:21:19;;;;;;;1.38;0.90;;;;;;;;;;7395440;19;20564;-79
2022/05/28 00:23:45;;;;;;;1.38;0.70;;;;;;;;;;7394590;19;20378;-80
2022/05/28 00:26:11;;;;;;;1.00;0.70;;;;;;;;;;7393462;19;20010;-79
2022/05/28 00:28:36;;;;;;;0.90;0.60;;;;;;;;;;7395462;19;20012;-80
2022/05/28 00:31:02;;;;;;;1.52;0.90;;;;;;;;;;7430003;19;20011;-79
2022/05/28 00:33:30;;;;;;;0.55;0.55;;;;;;;;;;7429382;19;19990;-78
2022/05/28 00:35:56;;;;;;;0.70;0.70;;;;;;;;;;7429102;19;20017;-78
2022/05/28 00:38:22;;;;;;;1.73;0.60;;;;;;;;;;7430932;19;20046;-79
2022/05/28 00:40:50;;;;;;;1.23;0.80;;;;;;;;;;7408957;19;20010;-80
2022/05/28 00:43:15;;;;;;;0.70;0.70;;;;;;;;;;7397009;19;20010;-79
2022/05/28 00:45:43;;;;;;;1.10;0.45;;;;;;;;;;7396232;19;20081;-79
2022/05/28 00:48:10;;;;;;;0.93;0.57;;;;;;;;;;7399470;19;20007;-80
2022/05/28 00:50:37;;;;;;;1.00;0.80;;;;;;;;;;7400326;19;20035;-79
2022/05/28 00:53:04;;;;;;;0.55;0.52;;;;;;;;;;7400353;19;20006;-79
2022/05/28 00:55:33;;;;;;;1.63;0.93;;;;;;;;;;7395853;19;20033;-79
2022/05/28 00:58:01;;;;;;;1.42;0.95;;;;;;;;;;7398446;19;20038;-80
2022/05/28 01:00:26;;;;;;;2.83;1.30;;;;;;;;;;7398103;19;20028;-80
2022/05/28 01:03:17;;;;;;;0.50;0.50;;;;;;;;;;7398123;19;20459;-80
2022/05/28 01:05:47;;;;;;;0.95;0.77;;;;;;;;;;7394634;19;20487;-79
2022/05/28 01:08:26;;;;;;;1.45;0.82;;;;;;;;;;7395272;19;20448;-79
2022/05/28 01:11:02;;;;;;;2.17;1.00;;;;;;;;;;7397877;19;20011;-79
2022/05/28 01:13:36;;;;;;;0.95;0.77;;;;;;;;;;7397855;19;20328;-79
2022/05/28 01:16:10;;;;;;;2.30;0.90;;;;;;;;;;7397546;19;20014;-79
2022/05/28 01:18:43;;;;;;;1.13;0.80;;;;;;;;;;7400105;19;20007;-79
2022/05/28 01:21:15;;;;;;;2.50;1.10;;;;;;;;;;7401485;19;20014;-77
2022/05/28 01:23:52;;;;;;;0.73;0.73;;;;;;;;;;7410013;19;20363;-79
2022/05/28 01:26:26;;;;;;;1.98;1.00;;;;;;;;;;7395274;19;20412;-80
2022/05/28 01:28:56;;;;;;;1.75;0.93;;;;;;;;;;7400784;19;20005;-79
2022/05/28 01:31:22;;;;;;;2.22;1.02;;;;;;;;;;7398036;19;20717;-79
2022/05/28 01:33:49;;;;;;;1.75;1.05;;;;;;;;;;7400290;19;20022;-79
2022/05/28 01:36:16;;;;;;;1.52;1.20;;;;;;;;;;7397998;19;20115;-78
2022/05/28 01:38:43;;;;;;;0.70;0.65;;;;;;;;;;7397131;19;20018;-79
2022/05/28 01:41:11;;;;;;;1.85;0.80;;;;;;;;;;7391051;19;20007;-78
2022/05/28 01:43:40;;;;;;;1.33;0.80;;;;;;;;;;7396328;19;20014;-79
2022/05/28 01:46:06;;;;;;;1.55;0.95;;;;;;;;;;7393704;19;20018;-79
2022/05/28 01:48:32;;;;;;;2.42;1.30;;;;;;;;;;7398242;19;20112;-79
2022/05/28 01:51:00;;;;;;;1.58;1.17;;;;;;;;;;7396600;19;19998;-78
2022/05/28 01:56:11;;;;;;;2.53;1.20;;;;;;;;;;7394229;19;20020;-79
2022/05/28 01:58:37;;;;;;;2.28;1.13;;;;;;;;;;7395958;19;20412;-80
2022/05/28 02:01:05;;;;;;;0.90;0.90;;;;;;;;;;7395266;19;20363;-79
2022/05/28 02:03:32;;;;;;;1.25;1.13;;;;;;;;;;7394375;19;20003;-79
2022/05/28 02:05:57;;;;;;;2.92;1.25;;;;;;;;;;7393183;19;20115;-79
2022/05/28 02:08:23;;;;;;;3.95;1.40;;;;;;;;;;7396465;19;20006;-79
2022/05/28 02:11:00;;;;;;;3.05;1.40;;;;;;;;;;7395045;19;20002;-78
2022/05/28 02:13:33;;;;;;;3.42;1.15;;;;;;;;;;7393005;19;20448;-79
2022/05/28 02:16:09;;;;;;;1.80;1.10;;;;;;;;;;7393906;19;20534;-79
2022/05/28 02:18:43;;;;;;;;;;;;;;;;;;7397546;19;20002;-79
2022/05/28 02:21:27;;;;;;;2.38;1.00;;;;;;;;;;7395765;19;19935;-79
2022/05/28 02:24:04;;;;;;;4.40;1.10;;;;;;;;;;7397691;19;20014;-79
2022/05/28 02:26:29;;;;;;;2.05;1.10;;;;;;;;;;7389881;19;19994;-79
2022/05/28 02:28:55;;;;;;;3.63;1.15;;;;;;;;;;7396544;19;20014;-79
2022/05/28 02:31:27;;;;;;;2.28;1.15;;;;;;;;;;7393149;19;20510;-79
2022/05/28 02:33:52;;;;;;;1.90;1.30;;;;;;;;;;7392269;19;20006;-79
2022/05/28 02:36:18;;;;;;;4.43;1.02;;;;;;;;;;7393959;19;20015;-79
2022/05/28 02:38:44;;;;;;;2.42;1.10;;;;;;;;;;7393098;19;20011;-79
2022/05/28 02:41:10;;;;;;;3.15;1.27;;;;;;;;;;7393951;19;20014;-79
2022/05/28 02:43:36;;;;;;;3.10;1.20;;;;;;;;;;7393777;19;20499;-79
2022/05/28 02:46:02;;;;;;;1.95;1.08;;;;;;;;;;7393547;19;20014;-79
2022/05/28 02:48:28;;;;;;;4.63;1.38;;;;;;;;;;7392919;19;20002;-79
2022/05/28 02:51:00;;;;;;;2.58;1.13;;;;;;;;;;7392758;19;20018;-79
2022/05/28 02:53:25;;;;;;;3.08;1.20;;;;;;;;;;7394350;19;20006;-79
2022/05/28 02:55:50;;;;;;;4.35;1.38;;;;;;;;;;7391892;19;20022;-79
2022/05/28 02:58:16;;;;;;;1.60;1.08;;;;;;;;;;7400079;19;20076;-79
2022/05/28 03:00:41;;;;;;;3.88;1.55;;;;;;;;;;7395764;19;19998;-79
2022/05/28 03:03:06;;;;;;;2.53;1.30;;;;;;;;;;7396974;19;20410;-79
2022/05/28 03:05:31;;;;;;;4.53;1.40;;;;;;;;;;7391127;19;20011;-79
2022/05/28 03:07:57;;;;;;;3.00;1.35;;;;;;;;;;7393918;19;20010;-79
2022/05/28 03:10:23;;;;;;;3.00;1.33;;;;;;;;;;7393485;19;20529;-79
2022/05/28 03:12:48;;;;;;;2.25;1.30;;;;;;;;;;7393543;19;20006;-78
2022/05/28 03:15:13;;;;;;;2.15;1.10;;;;;;;;;;7393425;19;20031;-78
2022/05/28 03:17:39;;;;;;;2.47;1.77;;;;;;;;;;7394002;19;19999;-79
2022/05/28 03:20:05;;;;;;;3.08;1.50;;;;;;;;;;7395337;19;20034;-79
2022/05/28 03:22:30;;;;;;;2.28;1.17;;;;;;;;;;7397552;19;20006;-79
2022/05/28 03:24:56;;;;;;;5.75;1.52;;;;;;;;;;7392334;19;20026;-79
2022/05/28 03:27:22;;;;;;;5.20;1.58;;;;;;;;;;7393728;19;20003;-80
2022/05/28 03:29:47;;;;;;;3.13;1.27;;;;;;;;;;7392793;19;20040;-79
2022/05/28 03:32:13;;;;;;;4.05;1.75;;;;;;;;;;7391952;19;20014;-79
2022/05/28 03:34:38;;;;;;;4.20;1.83;;;;;;;;;;7391633;19;20049;-77
2022/05/28 03:37:04;;;;;;;2.17;0.98;;;;;;;;;;7392032;19;20024;-77
2022/05/28 03:39:29;;;;;;;3.53;1.55;;;;;;;;;;7388861;19;20001;-77
2022/05/28 03:41:55;;;;;;;2.15;0.98;;;;;;;;;;7387800;19;20011;-76
2022/05/28 03:44:20;;;;;;;5.43;1.38;;;;;;;;;;7390755;19;20021;-73
2022/05/28 03:46:46;;;;;;;4.55;1.30;;;;;;;;;;7386024;19;20036;-73
2022/05/28 03:49:22;;;;;;;3.22;1.27;;;;;;;;;;7389036;19;20449;-72
2022/05/28 03:51:48;;;;;;;4.20;1.33;;;;;;;;;;7388735;19;20086;-75
2022/05/28 03:54:13;;;;;;;5.88;1.38;;;;;;;;;;7389122;19;20024;-74
2022/05/28 03:56:41;;;;;;;5.35;1.30;;;;;;;;;;7383778;19;20010;-74
2022/05/28 03:59:08;;;;;;;5.50;1.25;;;;;;;;;;7389886;19;20010;-74
2022/05/28 04:01:34;;;;;;;2.60;1.15;;;;;;;;;;7383475;19;20011;-73
2022/05/28 04:03:59;;;;;;;4.93;1.20;;;;;;;;;;7382812;19;20464;-74
2022/05/28 04:06:25;;;;;;;1.95;1.02;;;;;;;;;;7387059;19;20027;-75
2022/05/28 04:08:50;;;;;;;3.95;1.92;;;;;;;;;;7389962;19;20480;-77
2022/05/28 04:11:17;;;;;;;2.28;1.08;;;;;;;;;;7384483;19;20009;-76
2022/05/28 04:13:43;;;;;;;2.85;1.17;;;;;;;;;;7389545;19;20400;-75
2022/05/28 04:16:08;;;;;;;3.00;1.10;;;;;;;;;;7385638;19;20010;-76
2022/05/28 04:18:34;;;;;;;2.78;1.13;;;;;;;;;;7390002;19;20002;-76
2022/05/28 04:20:59;;;;;;;2.28;0.90;;;;;;;;;;7386207;19;20017;-74
2022/05/28 04:23:24;;;;;;;2.53;1.08;;;;;;;;;;7387658;19;20015;-74
2022/05/28 04:25:50;;;;;;;2.08;0.90;;;;;;;;;;7380264;19;20147;-74
2022/05/28 04:28:15;;;;;;;2.17;1.20;;;;;;;;;;7382579;19;20002;-74
2022/05/28 04:30:41;;;;;;;2.53;0.90;;;;;;;;;;7384110;19;20010;-74
2022/05/28 04:33:06;;;;;;;17.50;2.85;;;;;;;;;;7388928;19;20007;-74
2022/05/28 04:35:31;;;;;;;3.20;1.10;;;;;;;;;;7386319;19;20010;-75
2022/05/28 04:37:57;;;;;;;3.55;1.30;;;;;;;;;;7388950;19;20474;-74
2022/05/28 04:40:23;;;;;;;5.50;1.27;;;;;;;;;;7387328;19;20002;-74
2022/05/28 04:42:48;;;;;;;2.88;1.42;;;;;;;;;;7387125;19;20017;-75
2022/05/28 04:45:13;;;;;;;7.43;3.95;;;;;;;;;;7387059;19;20334;-76
2022/05/28 04:47:39;;;;;;;3.10;0.90;;;;;;;;;;7384523;19;20027;-74
2022/05/28 04:50:04;;;;;;;3.33;1.55;;;;;;;;;;7388167;19;20098;-74
2022/05/28 04:52:30;;;;;;;4.18;1.42;;;;;;;;;;7386049;19;20029;-75
2022/05/28 04:54:55;;;;;;;3.40;1.25;;;;;;;;;;7378577;19;20014;-75
2022/05/28 04:57:21;;;;;;;11.30;1.33;;;;;;;;;;7386914;19;20015;-75
2022/05/28 04:59:46;;;;;;;6.93;1.40;;;;;;;;;;7388805;19;20461;-75
2022/05/28 05:02:12;;;;;;;3.85;1.45;;;;;;;;;;7380324;19;20027;-76
2022/05/28 05:04:37;;;;;;;3.45;1.33;;;;;;;;;;7379515;19;20010;-76
2022/05/28 05:07:03;;;;;;;3.53;1.40;;;;;;;;;;7384914;19;20021;-76
2022/05/28 05:09:28;;;;;;;3.15;0.88;;;;;;;;;;7348961;19;20394;-75
2022/05/28 05:11:53;;;;;;;6.82;1.23;;;;;;;;;;7380576;19;20031;-78
2022/05/28 05:14:19;;;;;;;5.15;1.67;;;;;;;;;;7383477;19;20018;-77
2022/05/28 05:16:44;;;;;;;5.80;1.08;;;;;;;;;;7392322;19;19999;-77
2022/05/28 05:19:09;;;;;;;3.60;1.23;;;;;;;;;;7394840;19;20015;-78
2022/05/28 05:21:35;;;;;;;4.40;1.08;;;;;;;;;;7392057;19;20070;-76
2022/05/28 05:24:00;;;;;;;8.77;1.35;;;;;;;;;;7386243;19;20010;-75
2022/05/28 05:26:25;;;;;;;2.28;1.05;;;;;;;;;;7388734;19;20488;-75
2022/05/28 05:28:51;;;;;;;4.63;1.17;;;;;;;;;;7388849;19;20639;-75
2022/05/28 05:31:16;;;;;;;3.20;1.55;;;;;;;;;;7391273;19;20293;-75
2022/05/28 05:33:42;;;;;;;3.80;1.02;;;;;;;;;;7391152;19;20014;-75
2022/05/28 05:36:09;;;;;;;8.20;1.30;;;;;;;;;;7386553;19;20559;-75
2022/05/28 05:38:35;;;;;;;6.32;1.13;;;;;;;;;;7391796;19;20026;-75
2022/05/28 05:41:00;;;;;;;5.72;1.80;;;;;;;;;;7392061;19;20077;-75
2022/05/28 05:43:25;;;;;;;6.47;1.20;;;;;;;;;;7389220;19;20068;-75
2022/05/28 05:45:53;;;;;;;3.25;1.20;;;;;;;;;;7384085;19;19998;-74
2022/05/28 05:48:18;;;;;;;4.47;1.80;;;;;;;;;;7387834;19;20099;-74
2022/05/28 05:50:44;;;;;;;3.03;1.02;;;;;;;;;;7391525;19;20072;-75
2022/05/28 05:53:09;;;;;;;4.65;1.00;;;;;;;;;;7388345;19;20726;-74
2022/05/28 05:55:34;;;;;;;6.53;1.80;;;;;;;;;;7389770;19;20298;-74
2022/05/28 05:57:59;;;;;;;5.20;1.38;;;;;;;;;;7392463;19;20690;-74
2022/05/28 06:00:25;;;;;;;2.30;0.90;;;;;;;;;;7390126;19;20035;-74
2022/05/28 06:02:50;;;;;;;4.75;1.20;;;;;;;;;;7387460;19;20007;-74
2022/05/28 06:05:15;;;;;;;3.08;1.30;;;;;;;;;;7387430;19;20015;-74
2022/05/28 06:07:41;;;;;;;6.07;1.48;;;;;;;;;;7388804;19;20471;-74
2022/05/28 06:10:10;;;;;;;3.95;1.05;;;;;;;;;;7389407;19;20378;-74
2022/05/28 06:12:36;;;;;;;7.35;1.48;;;;;;;;;;7386544;19;20019;-74
2022/05/28 06:15:01;;;;;;;7.15;1.40;;;;;;;;;;7384775;19;20136;-75
2022/05/28 06:17:27;;;;;;;5.70;1.33;;;;;;;;;;7390325;19;20011;-74
2022/05/28 06:19:52;;;;;;;11.70;2.13;;;;;;;;;;7390041;19;20349;-74
2022/05/28 06:22:17;;;;;;;3.78;1.38;;;;;;;;;;7389556;19;20130;-75
2022/05/28 06:24:42;;;;;;;5.50;1.25;;;;;;;;;;7390729;19;20431;-74
2022/05/28 06:27:08;;;;;;;7.28;1.58;;;;;;;;;;7385810;19;20009;-74
2022/05/28 06:29:33;;;;;;;8.15;1.73;;;;;;;;;;7386602;19;20038;-75
2022/05/28 06:31:58;;;;;;;6.43;1.50;;;;;;;;;;7388881;19;20441;-74
2022/05/28 06:34:24;;;;;;;8.38;1.63;;;;;;;;;;7386499;19;20038;-75
2022/05/28 06:36:49;;;;;;;3.95;1.20;;;;;;;;;;7388026;19;20018;-74
2022/05/28 06:39:14;;;;;;;7.80;1.73;;;;;;;;;;7391416;19;20487;-75
2022/05/28 06:41:40;;;;;;;3.88;1.60;;;;;;;;;;7389355;19;20063;-75
2022/05/28 06:44:05;;;;;;;3.78;1.17;;;;;;;;;;7387068;19;20023;-74
2022/05/28 06:46:30;;;;;;;5.97;1.08;;;;;;;;;;7388827;19;20003;-75
2022/05/28 06:48:56;;;;;;;8.07;1.30;;;;;;;;;;7358166;19;20010;-75
2022/05/28 06:51:21;;;;;;;4.00;1.20;;;;;;;;;;7393351;19;20036;-74
2022/05/28 06:53:48;;;;;;;8.40;1.77;;;;;;;;;;7392384;19;20010;-75
2022/05/28 06:56:16;;;;;;;3.78;1.30;;;;;;;;;;7391122;19;20014;-74
2022/05/28 06:58:43;;;;;;;5.35;1.10;;;;;;;;;;7390473;19;20047;-74
2022/05/28 07:01:10;;;;;;;7.45;1.42;;;;;;;;;;7384554;19;20047;-75
2022/05/28 07:03:36;;;;;;;5.68;1.50;;;;;;;;;;7385196;19;19998;-75
2022/05/28 07:06:02;;;;;;;5.47;1.30;;;;;;;;;;7384181;19;20427;-75
2022/05/28 07:08:28;;;;;;;5.53;1.60;;;;;;;;;;7386841;19;20659;-75
2022/05/28 07:10:56;;;;;;;3.30;1.05;;;;;;;;;;7387195;19;20003;-75
2022/05/28 07:13:23;;;;;;;5.07;1.13;;;;;;;;;;7385983;19;20010;-75
2022/05/28 07:15:48;;;;;;;5.28;1.10;;;;;;;;;;7384727;19;20014;-76
2022/05/28 07:18:14;;;;;;;4.70;1.20;;;;;;;;;;7376025;19;20348;-75
2022/05/28 07:20:42;;;;;;;2.33;1.00;;;;;;;;;;7385964;19;20066;-75
2022/05/28 07:23:13;;;;;;;8.55;1.50;;;;;;;;;;7386618;19;20638;-74
2022/05/28 07:25:39;;;;;;;4.88;1.08;;;;;;;;;;7367121;19;20115;-75
2022/05/28 07:28:24;;;;;;;6.88;1.27;;;;;;;;;;7383002;19;20010;-75
2022/05/28 07:30:51;;;;;;;3.72;0.98;;;;;;;;;;7389072;19;20002;-75
2022/05/28 07:33:16;;;;;;;4.13;1.33;;;;;;;;;;7379143;19;20026;-74
2022/05/28 07:35:42;;;;;;;5.47;1.08;;;;;;;;;;7387105;19;20014;-74
2022/05/28 07:38:07;;;;;;;5.07;1.27;;;;;;;;;;7387297;19;20015;-77
2022/05/28 07:40:34;;;;;;;5.32;0.95;;;;;;;;;;7386314;19;20409;-74
2022/05/28 07:42:59;;;;;;;3.03;1.15;;;;;;;;;;7383430;19;20067;-74
2022/05/28 07:45:25;;;;;;;3.80;0.90;;;;;;;;;;7374689;19;20018;-75
2022/05/28 07:47:51;;;;;;;3.17;0.70;;;;;;;;;;7385884;19;20010;-74
2022/05/28 07:50:16;;;;;;;4.85;1.40;;;;;;;;;;7386957;19;20010;-76
2022/05/28 07:52:41;;;;;;;4.72;0.77;;;;;;;;;;7385273;19;20073;-75
2022/05/28 07:55:09;;;;;;;8.75;1.13;;;;;;;;;;7383975;19;20006;-74
2022/05/28 07:57:34;;;;;;;2.25;0.95;;;;;;;;;;7382338;19;20034;-74
2022/05/28 07:59:59;;;;;;;4.40;1.00;;;;;;;;;;7384405;19;20070;-74
2022/05/28 08:02:24;;;;;;;2.05;0.82;;;;;;;;;;7386390;19;20026;-74
2022/05/28 08:04:50;;;;;;;3.55;0.95;;;;;;;;;;7379310;19;20463;-75
2022/05/28 08:07:15;;;;;;;1.48;0.60;;;;;;;;;;7387325;19;20007;-74
2022/05/28 08:09:40;;;;;;;2.17;0.75;;;;;;;;;;7384793;19;20026;-74
2022/05/28 08:12:06;;;;;;;6.20;1.27;;;;;;;;;;7385399;19;20471;-74
2022/05/28 08:14:31;;;;;;;4.03;0.93;;;;;;;;;;7382096;19;20011;-75
2022/05/28 08:16:56;;;;;;;1.58;0.60;;;;;;;;;;7385204;19;20507;-74
2022/05/28 08:19:22;;;;;;;1.90;0.70;;;;;;;;;;7384570;19;20015;-75
2022/05/28 08:24:31;;;;;;;1.63;0.50;;;;;;;;;;7386523;19;20009;-76
2022/05/28 08:26:58;;;;;;;0.98;0.50;;;;;;;;;;7384754;19;20058;-74
2022/05/28 08:29:24;;;;;;;6.82;1.02;;;;;;;;;;7386909;19;20078;-75
2022/05/28 08:31:50;;;;;;;1.52;0.55;;;;;;;;;;7381771;19;20006;-75
2022/05/28 08:34:15;;;;;;;1.60;0.43;;;;;;;;;;7382385;19;20031;-74
2022/05/28 08:36:40;;;;;;;1.73;0.47;;;;;;;;;;7384371;19;20094;-74
2022/05/28 08:39:05;;;;;;;2.67;0.60;;;;;;;;;;7385505;19;19995;-75
2022/05/28 08:41:45;;;;;;;1.80;0.60;;;;;;;;;;7386490;19;20030;-74
2022/05/28 08:44:15;;;;;;;4.63;1.02;;;;;;;;;;7382591;19;20473;-75
2022/05/28 08:46:43;;;;;;;5.95;0.60;;;;;;;;;;7381549;19;20022;-74
2022/05/28 08:49:10;;;;;;;2.70;0.82;;;;;;;;;;7384142;19;20074;-74
2022/05/28 08:51:42;;;;;;;2.58;1.00;;;;;;;;;;7389950;19;20018;-76
2022/05/28 08:54:31;;;;;;;1.75;0.70;;;;;;;;;;7390133;19;20456;-75
2022/05/28 08:57:01;;;;;;;3.40;0.80;;;;;;;;;;7389651;19;20508;-75
2022/05/28 08:59:54;;;;;;;3.17;0.95;;;;;;;;;;7391770;19;20030;-75
2022/05/28 09:02:37;;;;;;;2.60;0.80;;;;;;;;;;7391879;19;20036;-75
2022/05/28 09:05:04;;;;;;;2.28;0.73;;;;;;;;;;7385431;19;20370;-76
2022/05/28 09:07:30;;;;;;;3.92;1.10;;;;;;;;;;7390265;19;20014;-75
2022/05/28 09:09:57;;;;;;;1.60;0.60;;;;;;;;;;7385352;19;20006;-76
2022/05/28 09:12:36;;;;;;;3.88;0.80;;;;;;;;;;7391744;19;20107;-76
2022/05/28 09:15:01;;;;;;;2.05;0.80;;;;;;;;;;7391691;19;20015;-76
2022/05/28 09:17:31;;;;;;;2.47;0.75;;;;;;;;;;7392961;19;20010;-77
2022/05/28 09:20:00;;;;;;;3.03;0.80;;;;;;;;;;7394829;19;20002;-76
2022/05/28 09:22:26;;;;;;;3.15;0.68;;;;;;;;;;7386544;19;20010;-75
2022/05/28 09:24:51;;;;;;;0.45;0.20;;;;;;;;;;7386282;19;20110;-77
2022/05/28 09:27:49;;;;;;;2.50;0.60;;;;;;;;;;7389509;19;20313;-76
2022/05/28 09:30:26;;;;;;;2.92;0.60;;;;;;;;;;7390933;19;20007;-76
2022/05/28 09:33:00;;;;;;;2.90;0.68;;;;;;;;;;7391715;19;20030;-77
2022/05/28 09:35:49;;;;;;;3.70;0.60;;;;;;;;;;7391682;19;20476;-77
2022/05/28 09:38:24;;;;;;;1.80;0.50;;;;;;;;;;7392841;19;20013;-76
2022/05/28 09:40:52;;;;;;;4.05;0.90;;;;;;;;;;7393033;19;20104;-76
2022/05/28 09:43:27;;;;;;;1.45;0.50;;;;;;;;;;7387469;19;20450;-77
2022/05/28 09:46:05;;;;;;;1.02;0.47;;;;;;;;;;7388522;19;20011;-77
2022/05/28 09:48:31;;;;;;;5.22;0.68;;;;;;;;;;7393140;19;20403;-77
2022/05/28 09:50:56;;;;;;;2.58;0.40;;;;;;;;;;7392372;19;20003;-77
2022/05/28 09:56:22;;;;;;;1.55;0.45;;;;;;;;;;7390197;19;20089;-77
2022/05/28 09:58:47;;;;;;;1.30;0.73;;;;;;;;;;7389847;19;20487;-76
2022/05/28 10:01:26;;;;;;;5.32;0.50;;;;;;;;;;7391586;19;20088;-76
2022/05/28 10:06:48;;;;;;;6.68;0.80;;;;;;;;;;7390776;19;20039;-76
2022/05/28 10:09:25;;;;;;;0.68;0.30;;;;;;;;;;7391566;19;20006;-77
2022/05/28 10:11:55;;;;;;;2.00;0.43;;;;;;;;;;7390160;19;20010;-76
2022/05/28 10:14:22;;;;;;;1.05;0.57;;;;;;;;;;7389940;19;19999;-76
2022/05/28 10:16:49;;;;;;;1.27;0.55;;;;;;;;;;7387446;19;20021;-76
2022/05/28 10:19:25;;;;;;;1.88;0.80;;;;;;;;;;7391649;19;20014;-76
2022/05/28 10:21:53;;;;;;;2.03;0.60;;;;;;;;;;7391678;19;20010;-77
2022/05/28 10:24:22;;;;;;;2.97;0.80;;;;;;;;;;7390787;19;20638;-77
2022/05/28 10:26:58;;;;;;;2.63;0.60;;;;;;;;;;7387800;19;20147;-78
2022/05/28 10:29:28;;;;;;;1.85;0.60;;;;;;;;;;7393808;19;19991;-78
2022/05/28 10:31:55;;;;;;;1.30;0.60;;;;;;;;;;7388754;19;20014;-78
2022/05/28 10:34:29;;;;;;;3.08;0.60;;;;;;;;;;7388189;19;20025;-77
2022/05/28 10:37:23;;;;;;;2.90;0.50;;;;;;;;;;7387662;19;20476;-78
2022/05/28 10:39:48;;;;;;;2.25;0.77;;;;;;;;;;7391614;19;20005;-78
2022/05/28 10:42:14;;;;;;;2.83;1.02;;;;;;;;;;7387799;19;20007;-77
2022/05/28 10:44:42;;;;;;;3.03;0.50;;;;;;;;;;7389484;19;20006;-77
2022/05/28 10:47:22;;;;;;;1.15;0.55;;;;;;;;;;7390438;19;20040;-78
2022/05/28 10:49:54;;;;;;;3.55;0.85;;;;;;;;;;7389630;19;20006;-77
2022/05/28 10:52:50;;;;;;;2.25;0.50;;;;;;;;;;7390324;19;20055;-77
2022/05/28 10:55:44;;;;;;;4.18;0.90;;;;;;;;;;7389531;19;20010;-77
2022/05/28 10:58:22;;;;;;;3.42;0.70;;;;;;;;;;7390907;19;20018;-77
2022/05/28 11:01:02;;;;;;;1.73;0.47;;;;;;;;;;7390981;19;20496;-77
2022/05/28 11:03:51;;;;;;;0.70;0.38;;;;;;;;;;7389035;19;20027;-78
2022/05/28 11:06:35;;;;;;;2.58;0.60;;;;;;;;;;7388637;19;20013;-78
2022/05/28 11:09:46;;;;;;;1.00;0.38;;;;;;;;;;7390046;19;20067;-77
2022/05/28 11:13:01;;;;;;;1.77;0.38;;;;;;;;;;7388767;19;20015;-77
2022/05/28 11:15:39;;;;;;;1.17;0.52;;;;;;;;;;7389375;19;19995;-77
2022/05/28 11:18:21;;;;;;;0.90;0.40;;;;;;;;;;7388266;19;20046;-78
2022/05/28 11:20:55;;;;;;;2.33;0.50;;;;;;;;;;7389619;19;20069;-76
2022/05/28 11:23:45;;;;;;;2.28;0.40;;;;;;;;;;7387955;19;20018;-78
2022/05/28 11:26:30;;;;;;;1.50;0.57;;;;;;;;;;7388291;19;20018;-78
2022/05/28 11:29:14;;;;;;;1.52;0.47;;;;;;;;;;7389751;19;20002;-78
2022/05/28 11:31:49;;;;;;;3.60;0.50;;;;;;;;;;7387555;19;20447;-77
2022/05/28 11:34:23;;;;;;;1.02;0.68;;;;;;;;;;7387523;19;20022;-77
2022/05/28 11:36:58;;;;;;;4.63;0.87;;;;;;;;;;7386243;19;20011;-77
2022/05/28 11:39:45;;;;;;;0.70;0.40;;;;;;;;;;7390590;19;20247;-77
2022/05/28 11:42:31;;;;;;;11.07;1.02;;;;;;;;;;7386847;19;20468;-78
2022/05/28 11:44:57;;;;;;;;;;;;;;;;;;7389130;19;20018;-77
2022/05/28 11:47:37;;;;;;;0.77;0.40;;;;;;;;;;7388617;19;20299;-78
2022/05/28 11:53:19;;;;;;;1.48;0.70;;;;;;;;;;7387038;19;20516;-77
2022/05/28 11:55:46;;;;;;;2.58;0.50;;;;;;;;;;7387726;19;20014;-77
2022/05/28 11:58:19;;;;;;;1.90;0.50;;;;;;;;;;7387480;19;20017;-77
2022/05/28 12:00:51;;;;;;;1.92;0.70;;;;;;;;;;7387743;19;20312;-77
2022/05/28 12:03:26;;;;;;;2.20;0.75;;;;;;;;;;7386078;19;20083;-77
2022/05/28 12:06:29;;;;;;;3.85;0.73;;;;;;;;;;7386174;19;20025;-77
2022/05/28 12:09:00;;;;;;;2.05;0.75;;;;;;;;;;7386848;19;20021;-77
2022/05/28 12:11:50;;;;;;;2.92;0.77;;;;;;;;;;7384199;19;20029;-77
2022/05/28 12:14:33;;;;;;;2.40;0.50;;;;;;;;;;7385771;19;20478;-78
2022/05/28 12:17:12;;;;;;;3.88;0.65;;;;;;;;;;7386107;19;20593;-77
2022/05/28 12:19:50;;;;;;;1.40;0.40;;;;;;;;;;7386017;19;20552;-78
2022/05/28 12:22:22;;;;;;;4.68;0.52;;;;;;;;;;7387145;19;20073;-77
2022/05/28 12:25:03;;;;;;;2.33;0.47;;;;;;;;;;7385770;19;20002;-77
2022/05/28 12:27:37;;;;;;;1.23;0.40;;;;;;;;;;7395226;19;20676;-76
2022/05/28 12:30:08;;;;;;;1.20;0.50;;;;;;;;;;7396328;19;20073;-77
2022/05/28 12:32:48;;;;;;;2.20;0.73;;;;;;;;;;7394552;19;20002;-77
2022/05/28 12:35:19;;;;;;;0.95;0.40;;;;;;;;;;7390500;19;20432;-77
2022/05/28 12:38:09;;;;;;;0.70;0.45;;;;;;;;;;7395041;19;20035;-77
2022/05/28 12:40:58;;;;;;;1.85;0.50;;;;;;;;;;7394813;19;20606;-77
2022/05/28 12:43:39;;;;;;;1.77;0.50;;;;;;;;;;7393103;19;20598;-76
2022/05/28 12:46:15;;;;;;;2.33;0.60;;;;;;;;;;7391366;19;20016;-77
2022/05/28 12:48:42;;;;;;;1.58;0.38;;;;;;;;;;7392556;19;20014;-77
2022/05/28 12:51:24;;;;;;;0.80;0.32;;;;;;;;;;7392304;19;20013;-78
2022/05/28 12:53:54;;;;;;;1.42;0.45;;;;;;;;;;7394251;19;20034;-79
2022/05/28 12:56:35;;;;;;;2.05;0.50;;;;;;;;;;7391914;19;20352;-77
2022/05/28 12:59:16;;;;;;;1.58;0.45;;;;;;;;;;7395082;19;20002;-77
2022/05/28 13:01:55;;;;;;;6.10;0.70;;;;;;;;;;7395062;19;20015;-77
2022/05/28 13:04:21;;;;;;;2.22;0.60;;;;;;;;;;7392002;19;20507;-78
2022/05/28 13:06:53;;;;;;;1.13;0.45;;;;;;;;;;7389641;19;20010;-77
2022/05/28 13:09:24;;;;;;;2.33;0.52;;;;;;;;;;7393784;19;20015;-76
2022/05/28 13:12:11;;;;;;;1.85;0.50;;;;;;;;;;7393274;19;20007;-78
2022/05/28 13:15:04;;;;;;;1.50;0.50;;;;;;;;;;7391813;19;20023;-77
2022/05/28 13:17:41;;;;;;;1.85;0.50;;;;;;;;;;7392615;19;20021;-77
2022/05/28 13:20:36;;;;;;;1.33;0.50;;;;;;;;;;7394080;19;19995;-78
2022/05/28 13:23:16;;;;;;;2.53;0.73;;;;;;;;;;7392705;19;20443;-78
2022/05/28 13:26:15;;;;;;;1.92;0.50;;;;;;;;;;7389467;19;20017;-77
2022/05/28 13:28:59;;;;;;;3.00;0.57;;;;;;;;;;7392153;19;20074;-77
2022/05/28 13:31:30;;;;;;;2.45;0.50;;;;;;;;;;7393603;19;20031;-78
2022/05/28 13:33:55;;;;;;;1.02;0.50;;;;;;;;;;7390010;19;20080;-78
2022/05/28 13:36:22;;;;;;;3.08;0.45;;;;;;;;;;7391324;19;20010;-77
2022/05/28 13:38:49;;;;;;;1.52;0.50;;;;;;;;;;7393006;19;20003;-77
2022/05/28 13:41:23;;;;;;;1.45;0.50;;;;;;;;;;7390917;19;20022;-78
2022/05/28 13:43:58;;;;;;;2.97;0.60;;;;;;;;;;7389518;19;20360;-78
2022/05/28 13:46:24;;;;;;;1.27;0.70;;;;;;;;;;7391071;19;20103;-77
2022/05/28 13:48:55;;;;;;;5.43;0.47;;;;;;;;;;7392132;19;20357;-78
2022/05/28 13:51:20;;;;;;;4.47;0.70;;;;;;;;;;7392739;19;20395;-77
2022/05/28 13:53:51;;;;;;;2.38;0.80;;;;;;;;;;7392279;19;20002;-78
2022/05/28 13:56:25;;;;;;;0.95;0.45;;;;;;;;;;7389340;19;20961;-79
2022/05/28 13:58:51;;;;;;;1.42;0.47;;;;;;;;;;7391837;19;20069;-78
2022/05/28 14:01:34;;;;;;;0.50;0.28;;;;;;;;;;7393031;19;20468;-79
2022/05/28 14:04:17;;;;;;;1.77;0.47;;;;;;;;;;7392643;19;20010;-78
2022/05/28 14:06:56;;;;;;;2.10;0.57;;;;;;;;;;7390866;19;20010;-78
2022/05/28 14:09:30;;;;;;;1.00;0.40;;;;;;;;;;7393053;19;20035;-77
2022/05/28 14:11:55;;;;;;;1.77;0.57;;;;;;;;;;7386530;19;19998;-77
2022/05/28 14:14:23;;;;;;;2.00;0.50;;;;;;;;;;7389641;19;20043;-77
2022/05/28 14:16:50;;;;;;;0.28;0.20;;;;;;;;;;7380721;19;20499;-77
2022/05/28 14:19:21;;;;;;;1.33;0.40;;;;;;;;;;7388365;19;20115;-77
2022/05/28 14:21:55;;;;;;;1.10;0.60;;;;;;;;;;7389690;19;20074;-78
2022/05/28 14:24:27;;;;;;;4.18;0.52;;;;;;;;;;7390913;19;20011;-78
2022/05/28 14:27:01;;;;;;;0.93;0.45;;;;;;;;;;7384913;19;20027;-78
2022/05/28 14:29:31;;;;;;;1.27;0.60;;;;;;;;;;7389967;19;20035;-77
2022/05/28 14:31:57;;;;;;;2.05;0.50;;;;;;;;;;7386009;19;20464;-77
2022/05/28 14:34:25;;;;;;;1.85;0.65;;;;;;;;;;7384920;19;20014;-77
2022/05/28 14:36:53;;;;;;;1.50;0.40;;;;;;;;;;7384154;19;20017;-77
2022/05/28 14:39:19;;;;;;;1.20;0.38;;;;;;;;;;7388433;19;20074;-77
2022/05/28 14:42:00;;;;;;;1.25;0.50;;;;;;;;;;7389703;19;20365;-77
2022/05/28 14:44:27;;;;;;;1.45;0.50;;;;;;;;;;7388406;19;20074;-78
2022/05/28 14:46:53;;;;;;;1.20;0.45;;;;;;;;;;7384286;19;20006;-78
2022/05/28 14:49:32;;;;;;;1.25;0.70;;;;;;;;;;7386138;19;20409;-77
2022/05/28 14:52:07;;;;;;;1.35;0.63;;;;;;;;;;7388887;19;20010;-77
2022/05/28 14:54:32;;;;;;;2.03;0.57;;;;;;;;;;7381129;19;20009;-77
2022/05/28 14:57:00;;;;;;;1.63;0.47;;;;;;;;;;7385655;19;19994;-77
2022/05/28 14:59:43;;;;;;;2.97;0.70;;;;;;;;;;7384646;19;20487;-77
2022/05/28 15:02:17;;;;;;;1.73;0.40;;;;;;;;;;7391602;19;20013;-78
2022/05/28 15:04:42;;;;;;;1.38;0.68;;;;;;;;;;7394674;19;20461;-78
2022/05/28 15:07:10;;;;;;;3.10;0.60;;;;;;;;;;7391933;19;20093;-78
2022/05/28 15:09:57;;;;;;;2.00;0.63;;;;;;;;;;7391782;19;20002;-78
2022/05/28 15:12:28;;;;;;;2.05;0.60;;;;;;;;;;7389176;19;20006;-78
2022/05/28 15:14:55;;;;;;;1.63;0.50;;;;;;;;;;7387642;19;20021;-79
2022/05/28 15:17:20;;;;;;;3.17;0.60;;;;;;;;;;7388127;19;20455;-78